createdAt,value
2018-05-25T00:00:03.774Z,24.62
2018-05-25T00:01:12.927Z,24.62
2018-05-25T00:02:22.102Z,24.65
2018-05-25T00:03:31.777Z,24.57
2018-05-25T00:04:41.205Z,24.62
2018-05-25T00:05:51.131Z,24.6
2018-05-25T00:07:00.572Z,24.53
2018-05-25T00:08:10.516Z,24.61
2018-05-25T00:09:19.171Z,24.58
2018-05-25T00:10:29.112Z,24.57
2018-05-25T00:11:38.536Z,24.6
2018-05-25T00:12:47.715Z,24.53
2018-05-25T00:13:56.880Z,24.62
2018-05-25T00:15:06.309Z,24.58
2018-05-25T00:16:15.979Z,24.57
2018-05-25T00:17:25.138Z,24.6
2018-05-25T00:18:34.285Z,24.58
2018-05-25T00:19:43.947Z,24.6
2018-05-25T00:20:53.885Z,24.58
2018-05-25T00:22:03.057Z,24.55
2018-05-25T00:23:12.802Z,24.53
2018-05-25T00:24:22.273Z,24.58
2018-05-25T00:25:31.447Z,24.57
2018-05-25T00:26:41.131Z,24.6
2018-05-25T00:27:50.303Z,24.62
2018-05-25T00:29:00.010Z,24.57
2018-05-25T00:30:09.181Z,24.53
2018-05-25T00:31:18.335Z,24.52
2018-05-25T00:32:27.507Z,24.5
2018-05-25T00:33:36.419Z,24.61
2018-05-25T00:34:45.845Z,24.5
2018-05-25T00:35:55.787Z,24.52
2018-05-25T00:37:05.287Z,24.55
2018-05-25T00:38:15.191Z,24.52
2018-05-25T00:39:24.157Z,24.53
2018-05-25T00:40:33.087Z,24.47
2018-05-25T00:41:42.285Z,24.52
2018-05-25T00:42:51.454Z,24.55
2018-05-25T00:44:00.628Z,24.57
2018-05-25T00:45:09.809Z,24.52
2018-05-25T00:46:18.973Z,24.53
2018-05-25T00:47:28.404Z,24.57
2018-05-25T00:48:38.118Z,24.6
2018-05-25T00:49:47.823Z,24.55
2018-05-25T00:50:57.248Z,24.58
2018-05-25T00:52:06.700Z,24.57
2018-05-25T00:53:15.873Z,24.57
2018-05-25T00:54:25.560Z,24.52
2018-05-25T00:55:34.725Z,24.49
2018-05-25T00:56:43.909Z,24.5
2018-05-25T00:57:53.587Z,24.53
2018-05-25T00:59:02.764Z,24.57
2018-05-25T01:00:12.239Z,24.5
2018-05-25T01:01:21.406Z,24.47
2018-05-25T01:02:31.324Z,24.58
2018-05-25T01:03:41.032Z,24.52
2018-05-25T01:04:50.505Z,24.47
2018-05-25T01:05:59.939Z,24.49
2018-05-25T01:07:09.139Z,24.58
2018-05-25T01:08:18.818Z,24.46
2018-05-25T01:09:28.767Z,24.5
2018-05-25T01:10:38.194Z,24.55
2018-05-25T01:11:47.644Z,24.46
2018-05-25T01:12:56.815Z,24.46
2018-05-25T01:14:06.216Z,24.53
2018-05-25T01:15:15.640Z,24.49
2018-05-25T01:16:24.810Z,24.45
2018-05-25T01:17:33.740Z,24.5
2018-05-25T01:18:43.166Z,24.47
2018-05-25T01:19:52.382Z,24.5
2018-05-25T01:21:01.573Z,24.5
2018-05-25T01:22:11.263Z,24.49
2018-05-25T01:23:20.204Z,24.47
2018-05-25T01:24:29.924Z,24.42
2018-05-25T01:25:39.389Z,24.52
2018-05-25T01:26:48.794Z,24.43
2018-05-25T01:27:57.959Z,24.43
2018-05-25T01:29:07.397Z,24.4
2018-05-25T01:30:16.566Z,24.46
2018-05-25T01:31:25.998Z,24.43
2018-05-25T01:32:35.680Z,24.42
2018-05-25T01:33:45.155Z,24.49
2018-05-25T01:34:54.626Z,24.42
2018-05-25T01:36:04.315Z,24.42
2018-05-25T01:37:13.743Z,24.45
2018-05-25T01:38:23.174Z,24.46
2018-05-25T01:39:32.354Z,24.39
2018-05-25T01:40:42.352Z,24.42
2018-05-25T01:41:51.511Z,24.45
2018-05-25T01:43:01.209Z,24.42
2018-05-25T01:44:10.873Z,24.39
2018-05-25T01:45:20.286Z,24.47
2018-05-25T01:46:29.733Z,24.46
2018-05-25T01:47:39.416Z,24.47
2018-05-25T01:48:48.834Z,24.46
2018-05-25T01:49:58.508Z,24.42
2018-05-25T01:51:08.231Z,24.45
2018-05-25T01:52:17.426Z,24.45
2018-05-25T01:53:26.835Z,24.42
2018-05-25T01:54:36.515Z,24.4
2018-05-25T01:55:46.178Z,24.5
2018-05-25T01:56:55.348Z,24.46
2018-05-25T01:58:04.776Z,24.39
2018-05-25T01:59:13.931Z,24.45
2018-05-25T02:00:22.861Z,24.39
2018-05-25T02:01:32.060Z,24.42
2018-05-25T02:02:41.736Z,24.43
2018-05-25T02:03:51.194Z,24.42
2018-05-25T02:05:00.112Z,24.47
2018-05-25T02:06:09.029Z,24.43
2018-05-25T02:07:18.200Z,24.49
2018-05-25T02:08:27.633Z,24.46
2018-05-25T02:09:37.330Z,24.42
2018-05-25T02:10:46.520Z,24.49
2018-05-25T02:11:55.942Z,24.39
2018-05-25T02:13:05.931Z,24.45
2018-05-25T02:14:15.401Z,24.42
2018-05-25T02:15:24.552Z,24.52
2018-05-25T02:16:34.267Z,24.42
2018-05-25T02:17:43.452Z,24.4
2018-05-25T02:18:53.162Z,24.32
2018-05-25T02:20:02.348Z,24.4
2018-05-25T02:21:11.000Z,24.45
2018-05-25T02:22:20.437Z,24.31
2018-05-25T02:23:29.932Z,24.31
2018-05-25T02:24:39.108Z,24.49
2018-05-25T02:25:48.537Z,24.43
2018-05-25T02:26:58.246Z,24.34
2018-05-25T02:28:07.418Z,24.46
2018-05-25T02:29:16.588Z,24.39
2018-05-25T02:30:26.300Z,24.43
2018-05-25T02:31:35.986Z,24.47
2018-05-25T02:32:45.429Z,24.42
2018-05-25T02:33:55.126Z,24.43
2018-05-25T02:35:04.287Z,24.35
2018-05-25T02:36:13.983Z,24.31
2018-05-25T02:37:23.451Z,24.32
2018-05-25T02:38:32.698Z,24.35
2018-05-25T02:39:42.799Z,24.35
2018-05-25T02:40:52.739Z,24.31
2018-05-25T02:42:02.169Z,24.31
2018-05-25T02:43:11.083Z,24.47
2018-05-25T02:44:20.808Z,24.45
2018-05-25T02:45:30.250Z,24.31
2018-05-25T02:46:39.448Z,24.31
2018-05-25T02:47:48.873Z,24.42
2018-05-25T02:48:58.293Z,24.45
2018-05-25T02:50:07.490Z,24.27
2018-05-25T02:51:17.184Z,24.42
2018-05-25T02:52:26.649Z,24.37
2018-05-25T02:53:35.800Z,24.3
2018-05-25T02:54:44.697Z,24.28
2018-05-25T02:55:53.880Z,24.31
2018-05-25T02:57:03.098Z,24.3
2018-05-25T02:58:12.528Z,24.31
2018-05-25T02:59:21.934Z,24.45
2018-05-25T03:00:31.882Z,24.28
2018-05-25T03:01:41.041Z,24.34
2018-05-25T03:02:50.766Z,24.32
2018-05-25T03:04:00.722Z,24.31
2018-05-25T03:05:10.164Z,24.32
2018-05-25T03:06:19.878Z,24.22
2018-05-25T03:07:29.561Z,24.45
2018-05-25T03:08:39.246Z,24.47
2018-05-25T03:09:48.934Z,24.37
2018-05-25T03:10:58.918Z,24.31
2018-05-25T03:12:07.925Z,24.34
2018-05-25T03:13:17.407Z,24.31
2018-05-25T03:14:26.814Z,24.35
2018-05-25T03:15:36.219Z,24.45
2018-05-25T03:16:45.393Z,24.46
2018-05-25T03:17:54.872Z,24.46
2018-05-25T03:19:04.298Z,24.3
2018-05-25T03:20:13.731Z,24.35
2018-05-25T03:21:23.153Z,24.34
2018-05-25T03:22:33.098Z,24.43
2018-05-25T03:23:42.277Z,24.45
2018-05-25T03:24:51.685Z,24.32
2018-05-25T03:26:01.113Z,24.3
2018-05-25T03:27:10.292Z,24.34
2018-05-25T03:28:20.006Z,24.45
2018-05-25T03:29:28.920Z,24.43
2018-05-25T03:30:37.832Z,24.35
2018-05-25T03:31:47.286Z,24.31
2018-05-25T03:32:56.716Z,24.28
2018-05-25T03:34:06.149Z,24.3
2018-05-25T03:35:16.141Z,24.47
2018-05-25T03:36:25.564Z,24.47
2018-05-25T03:37:34.988Z,24.32
2018-05-25T03:38:44.419Z,24.39
2018-05-25T03:39:53.322Z,24.3
2018-05-25T03:41:02.990Z,24.3
2018-05-25T03:42:12.418Z,24.34
2018-05-25T03:43:21.844Z,24.35
2018-05-25T03:44:31.310Z,24.35
2018-05-25T03:45:40.727Z,24.32
2018-05-25T03:46:50.154Z,24.42
2018-05-25T03:47:59.566Z,24.3
2018-05-25T03:49:08.726Z,24.35
2018-05-25T03:50:17.901Z,24.32
2018-05-25T03:51:27.585Z,24.37
2018-05-25T03:52:36.495Z,24.43
2018-05-25T03:53:45.932Z,24.37
2018-05-25T03:54:55.355Z,24.4
2018-05-25T03:56:05.064Z,24.31
2018-05-25T03:57:14.498Z,24.43
2018-05-25T03:58:23.930Z,24.2
2018-05-25T03:59:33.347Z,24.39
2018-05-25T04:00:42.260Z,24.4
2018-05-25T04:01:51.699Z,24.39
2018-05-25T04:03:01.122Z,24.2
2018-05-25T04:04:10.542Z,24.34
2018-05-25T04:05:19.697Z,24.43
2018-05-25T04:06:29.144Z,24.34
2018-05-25T04:07:38.573Z,24.39
2018-05-25T04:08:48.256Z,24.37
2018-05-25T04:09:58.205Z,24.43
2018-05-25T04:11:08.156Z,24.43
2018-05-25T04:12:17.582Z,24.34
2018-05-25T04:13:27.010Z,24.3
2018-05-25T04:14:35.904Z,24.34
2018-05-25T04:15:45.353Z,24.42
2018-05-25T04:16:54.784Z,24.42
2018-05-25T04:18:04.215Z,24.32
2018-05-25T04:19:13.391Z,24.34
2018-05-25T04:20:22.560Z,24.45
2018-05-25T04:21:31.977Z,24.31
2018-05-25T04:22:41.667Z,24.34
2018-05-25T04:23:51.091Z,24.32
2018-05-25T04:25:00.506Z,24.42
2018-05-25T04:26:09.933Z,24.35
2018-05-25T04:27:19.627Z,24.34
2018-05-25T04:28:29.040Z,24.31
2018-05-25T04:29:37.961Z,24.31
2018-05-25T04:30:47.941Z,24.32
2018-05-25T04:31:57.088Z,24.34
2018-05-25T04:33:06.795Z,24.39
2018-05-25T04:34:16.469Z,24.31
2018-05-25T04:35:25.636Z,24.25
2018-05-25T04:36:35.333Z,24.39
2018-05-25T04:37:44.755Z,24.28
2018-05-25T04:38:54.426Z,24.31
2018-05-25T04:40:04.105Z,24.31
2018-05-25T04:41:13.052Z,24.32
2018-05-25T04:42:22.725Z,24.39
2018-05-25T04:43:31.899Z,24.31
2018-05-25T04:44:41.058Z,24.37
2018-05-25T04:45:50.218Z,24.3
2018-05-25T04:46:59.896Z,24.37
2018-05-25T04:48:09.307Z,24.24
2018-05-25T04:49:19.247Z,24.31
2018-05-25T04:50:28.397Z,24.37
2018-05-25T04:51:37.834Z,24.31
2018-05-25T04:52:47.519Z,24.31
2018-05-25T04:53:56.415Z,24.3
2018-05-25T04:55:06.116Z,24.32
2018-05-25T04:56:15.788Z,24.31
2018-05-25T04:57:25.492Z,24.32
2018-05-25T04:58:34.676Z,24.39
2018-05-25T04:59:43.582Z,24.35
2018-05-25T05:00:52.745Z,24.31
2018-05-25T05:02:02.664Z,24.32
2018-05-25T05:03:12.357Z,24.43
2018-05-25T05:04:21.523Z,24.34
2018-05-25T05:05:31.467Z,24.43
2018-05-25T05:06:40.895Z,24.34
2018-05-25T05:07:50.049Z,24.34
2018-05-25T05:08:59.457Z,24.42
2018-05-25T05:10:09.179Z,24.31
2018-05-25T05:11:18.935Z,24.31
2018-05-25T05:12:28.092Z,24.28
2018-05-25T05:13:37.001Z,24.31
2018-05-25T05:14:47.088Z,24.35
2018-05-25T05:15:56.966Z,24.3
2018-05-25T05:17:06.179Z,24.31
2018-05-25T05:18:15.858Z,24.35
2018-05-25T05:19:24.809Z,24.3
2018-05-25T05:20:33.990Z,24.49
2018-05-25T05:21:43.173Z,24.32
2018-05-25T05:22:52.888Z,24.4
2018-05-25T05:24:02.346Z,24.42
2018-05-25T05:25:11.257Z,24.43
2018-05-25T05:26:20.150Z,24.37
2018-05-25T05:27:30.514Z,24.4
2018-05-25T05:28:39.414Z,24.42
2018-05-25T05:29:48.832Z,24.52
2018-05-25T05:30:58.265Z,24.47
2018-05-25T05:32:08.204Z,24.45
2018-05-25T05:33:17.898Z,24.47
2018-05-25T05:34:26.813Z,24.47
2018-05-25T05:35:35.735Z,24.46
2018-05-25T05:36:45.167Z,24.46
2018-05-25T05:37:54.085Z,24.45
2018-05-25T05:39:03.258Z,24.46
2018-05-25T05:40:13.202Z,24.46
2018-05-25T05:41:22.881Z,24.46
2018-05-25T05:42:32.553Z,24.49
2018-05-25T05:43:42.241Z,24.46
2018-05-25T05:44:51.678Z,24.39
2018-05-25T05:46:00.850Z,24.46
2018-05-25T05:47:10.281Z,24.46
2018-05-25T05:48:19.180Z,24.47
2018-05-25T05:49:28.360Z,24.46
2018-05-25T05:50:37.833Z,24.5
2018-05-25T05:51:47.756Z,24.43
2018-05-25T05:52:56.922Z,24.47
2018-05-25T05:54:06.349Z,24.46
2018-05-25T05:55:16.045Z,24.49
2018-05-25T05:56:25.230Z,24.45
2018-05-25T05:57:34.408Z,24.43
2018-05-25T05:58:44.116Z,24.5
2018-05-25T05:59:53.533Z,24.45
2018-05-25T06:01:02.454Z,24.55
2018-05-25T06:02:11.886Z,24.45
2018-05-25T06:03:21.311Z,24.52
2018-05-25T06:04:30.657Z,24.57
2018-05-25T06:05:39.860Z,24.55
2018-05-25T06:06:49.285Z,24.46
2018-05-25T06:07:58.711Z,24.6
2018-05-25T06:09:08.149Z,24.49
2018-05-25T06:10:17.581Z,24.53
2018-05-25T06:11:26.487Z,24.55
2018-05-25T06:12:35.400Z,24.57
2018-05-25T06:13:45.109Z,24.49
2018-05-25T06:14:54.520Z,24.49
2018-05-25T06:16:04.003Z,24.5
2018-05-25T06:17:13.702Z,24.5
2018-05-25T06:18:22.391Z,24.53
2018-05-25T06:19:31.551Z,24.55
2018-05-25T06:20:40.705Z,24.47
2018-05-25T06:21:50.143Z,24.5
2018-05-25T06:23:00.124Z,24.49
2018-05-25T06:24:09.610Z,24.57
2018-05-25T06:25:19.608Z,24.49
2018-05-25T06:26:29.104Z,24.53
2018-05-25T06:27:38.013Z,24.52
2018-05-25T06:28:47.469Z,24.55
2018-05-25T06:29:57.410Z,24.58
2018-05-25T06:31:06.873Z,24.58
2018-05-25T06:32:16.307Z,24.57
2018-05-25T06:33:25.520Z,24.6
2018-05-25T06:34:34.211Z,24.57
2018-05-25T06:35:43.904Z,24.58
2018-05-25T06:36:53.329Z,24.58
2018-05-25T06:38:02.498Z,24.57
2018-05-25T06:39:11.900Z,24.6
2018-05-25T06:40:21.606Z,24.52
2018-05-25T06:41:31.320Z,24.58
2018-05-25T06:42:40.732Z,24.62
2018-05-25T06:43:52.152Z,24.67
2018-05-25T06:45:03.632Z,24.64
2018-05-25T06:46:13.330Z,24.64
2018-05-25T06:47:22.511Z,24.67
2018-05-25T06:48:31.163Z,24.6
2018-05-25T06:49:40.320Z,24.62
2018-05-25T06:50:50.053Z,24.65
2018-05-25T06:51:59.481Z,24.61
2018-05-25T06:53:09.158Z,24.64
2018-05-25T06:54:18.592Z,24.61
2018-05-25T06:55:28.276Z,24.67
2018-05-25T06:56:38.014Z,24.61
2018-05-25T06:57:47.460Z,24.64
2018-05-25T06:58:56.694Z,24.62
2018-05-25T07:00:05.872Z,24.67
2018-05-25T07:01:15.068Z,24.64
2018-05-25T07:02:25.032Z,24.64
2018-05-25T07:03:34.208Z,24.64
2018-05-25T07:04:43.400Z,24.65
2018-05-25T07:05:52.591Z,24.65
2018-05-25T07:07:01.542Z,24.65
2018-05-25T07:08:10.716Z,24.73
2018-05-25T07:09:20.411Z,24.67
2018-05-25T07:10:29.875Z,24.62
2018-05-25T07:11:38.781Z,24.67
2018-05-25T07:12:48.218Z,24.69
2018-05-25T07:13:57.921Z,24.69
2018-05-25T07:15:07.452Z,24.69
2018-05-25T07:16:16.680Z,24.62
2018-05-25T07:17:26.136Z,24.76
2018-05-25T07:18:35.542Z,24.73
2018-05-25T07:19:45.247Z,24.69
2018-05-25T07:20:54.677Z,24.58
2018-05-25T07:22:03.906Z,24.76
2018-05-25T07:23:13.356Z,24.73
2018-05-25T07:24:22.771Z,24.67
2018-05-25T07:25:32.194Z,24.69
2018-05-25T07:26:41.388Z,24.67
2018-05-25T07:27:50.285Z,24.67
2018-05-25T07:29:00.240Z,24.69
2018-05-25T07:30:09.408Z,24.73
2018-05-25T07:31:18.601Z,24.71
2018-05-25T07:32:28.060Z,24.67
2018-05-25T07:33:37.506Z,24.71
2018-05-25T07:34:47.189Z,24.65
2018-05-25T07:35:56.352Z,24.69
2018-05-25T07:37:05.809Z,24.67
2018-05-25T07:38:15.236Z,24.73
2018-05-25T07:39:24.825Z,24.73
2018-05-25T07:40:34.265Z,24.67
2018-05-25T07:41:43.698Z,24.71
2018-05-25T07:42:52.870Z,24.68
2018-05-25T07:44:02.354Z,24.69
2018-05-25T07:45:12.091Z,24.77
2018-05-25T07:46:21.834Z,24.67
2018-05-25T07:47:31.270Z,24.69
2018-05-25T07:48:40.451Z,24.73
2018-05-25T07:49:49.860Z,24.68
2018-05-25T07:50:59.321Z,24.73
2018-05-25T07:52:08.505Z,24.77
2018-05-25T07:53:17.931Z,24.76
2018-05-25T07:54:27.572Z,24.73
2018-05-25T07:55:37.051Z,24.73
2018-05-25T07:56:46.481Z,24.73
2018-05-25T07:57:55.729Z,24.67
2018-05-25T07:59:04.952Z,24.71
2018-05-25T08:00:14.866Z,24.77
2018-05-25T08:01:24.395Z,24.78
2018-05-25T08:02:33.577Z,24.78
2018-05-25T08:03:42.743Z,24.73
2018-05-25T08:04:52.169Z,24.77
2018-05-25T08:06:01.350Z,24.76
2018-05-25T08:07:10.509Z,24.77
2018-05-25T08:08:20.188Z,24.71
2018-05-25T08:09:29.640Z,24.73
2018-05-25T08:10:38.835Z,24.8
2018-05-25T08:11:48.309Z,24.73
2018-05-25T08:12:57.748Z,24.77
2018-05-25T08:14:06.925Z,24.77
2018-05-25T08:15:16.646Z,24.73
2018-05-25T08:16:26.366Z,24.76
2018-05-25T08:17:35.785Z,24.81
2018-05-25T08:18:45.219Z,24.78
2018-05-25T08:19:54.162Z,24.8
2018-05-25T08:21:03.866Z,24.8
2018-05-25T08:22:13.573Z,24.77
2018-05-25T08:23:23.258Z,24.81
2018-05-25T08:24:32.695Z,24.78
2018-05-25T08:25:42.458Z,24.77
2018-05-25T08:26:51.893Z,24.81
2018-05-25T08:28:01.856Z,24.8
2018-05-25T08:29:11.585Z,24.77
2018-05-25T08:30:21.367Z,24.81
2018-05-25T08:31:30.644Z,24.77
2018-05-25T08:32:40.124Z,24.76
2018-05-25T08:33:49.361Z,24.78
2018-05-25T08:34:59.065Z,24.83
2018-05-25T08:36:08.243Z,24.77
2018-05-25T08:37:17.693Z,24.84
2018-05-25T08:38:26.625Z,24.81
2018-05-25T08:39:36.061Z,24.83
2018-05-25T08:40:45.243Z,24.83
2018-05-25T08:41:54.693Z,24.76
2018-05-25T08:43:04.134Z,24.81
2018-05-25T08:44:14.069Z,24.78
2018-05-25T08:45:23.229Z,24.76
2018-05-25T08:46:32.924Z,24.83
2018-05-25T08:47:42.875Z,24.76
2018-05-25T08:48:52.069Z,24.8
2018-05-25T08:50:01.551Z,24.77
2018-05-25T08:51:10.944Z,24.76
2018-05-25T08:52:20.381Z,24.78
2018-05-25T08:53:29.807Z,24.73
2018-05-25T08:54:38.982Z,24.76
2018-05-25T08:55:47.896Z,24.84
2018-05-25T08:56:57.343Z,24.84
2018-05-25T08:58:06.253Z,24.77
2018-05-25T08:59:16.295Z,24.71
2018-05-25T09:00:25.760Z,24.77
2018-05-25T09:01:35.459Z,24.8
2018-05-25T09:02:44.886Z,24.81
2018-05-25T09:03:54.823Z,24.78
2018-05-25T09:05:04.514Z,24.8
2018-05-25T09:06:14.212Z,24.73
2018-05-25T09:07:23.699Z,24.8
2018-05-25T09:08:33.103Z,24.8
2018-05-25T09:09:42.025Z,24.83
2018-05-25T09:10:51.703Z,24.85
2018-05-25T09:12:01.392Z,24.8
2018-05-25T09:13:10.564Z,24.76
2018-05-25T09:14:20.000Z,24.78
2018-05-25T09:15:29.449Z,24.71
2018-05-25T09:16:38.617Z,24.81
2018-05-25T09:17:48.073Z,24.78
2018-05-25T09:18:57.604Z,24.8
2018-05-25T09:20:25.977Z,24.84
2018-05-25T09:21:35.791Z,24.8
2018-05-25T09:22:45.099Z,24.69
2018-05-25T09:23:54.549Z,24.83
2018-05-25T09:25:04.247Z,24.8
2018-05-25T09:26:13.440Z,24.77
2018-05-25T09:27:23.116Z,24.78
2018-05-25T09:28:33.091Z,24.83
2018-05-25T09:29:41.752Z,24.84
2018-05-25T09:30:51.349Z,24.8
2018-05-25T09:32:01.119Z,24.71
2018-05-25T09:33:10.830Z,24.83
2018-05-25T09:34:20.257Z,24.83
2018-05-25T09:35:29.938Z,24.76
2018-05-25T09:36:39.382Z,24.8
2018-05-25T09:37:48.336Z,24.78
2018-05-25T09:38:57.509Z,24.8
2018-05-25T09:40:07.479Z,24.85
2018-05-25T09:41:17.149Z,24.87
2018-05-25T09:42:26.821Z,24.85
2018-05-25T09:43:36.354Z,24.77
2018-05-25T09:44:45.002Z,24.8
2018-05-25T09:45:54.170Z,24.87
2018-05-25T09:47:03.590Z,24.76
2018-05-25T09:48:13.064Z,24.9
2018-05-25T09:49:22.515Z,24.81
2018-05-25T09:50:31.955Z,24.84
2018-05-25T09:51:41.387Z,24.83
2018-05-25T09:52:51.099Z,24.84
2018-05-25T09:54:00.127Z,24.78
2018-05-25T09:55:09.034Z,24.78
2018-05-25T09:56:18.486Z,24.84
2018-05-25T09:57:27.709Z,24.8
2018-05-25T09:58:37.669Z,24.88
2018-05-25T09:59:47.362Z,24.76
2018-05-25T10:00:57.099Z,24.77
2018-05-25T10:02:06.531Z,24.81
2018-05-25T10:03:16.716Z,24.85
2018-05-25T10:04:26.168Z,24.81
2018-05-25T10:05:35.095Z,24.8
2018-05-25T10:06:44.313Z,24.9
2018-05-25T10:07:53.248Z,24.81
2018-05-25T10:09:02.717Z,24.83
2018-05-25T10:10:11.899Z,24.9
2018-05-25T10:11:21.618Z,24.85
2018-05-25T10:12:31.307Z,24.88
2018-05-25T10:13:39.985Z,24.8
2018-05-25T10:14:49.127Z,24.83
2018-05-25T10:15:58.554Z,24.8
2018-05-25T10:17:07.967Z,24.81
2018-05-25T10:18:17.899Z,24.83
2018-05-25T10:19:27.079Z,24.9
2018-05-25T10:20:36.503Z,24.85
2018-05-25T10:21:45.424Z,24.81
2018-05-25T10:22:54.879Z,24.83
2018-05-25T10:24:04.320Z,24.8
2018-05-25T10:25:13.744Z,24.81
2018-05-25T10:26:22.642Z,24.83
2018-05-25T10:27:31.586Z,24.8
2018-05-25T10:28:41.040Z,24.81
2018-05-25T10:29:50.768Z,24.85
2018-05-25T10:31:00.504Z,24.78
2018-05-25T10:32:10.194Z,24.84
2018-05-25T10:33:19.881Z,24.84
2018-05-25T10:34:29.084Z,24.83
2018-05-25T10:35:38.241Z,24.88
2018-05-25T10:36:47.419Z,24.8
2018-05-25T10:37:56.579Z,24.87
2018-05-25T10:39:05.730Z,24.83
2018-05-25T10:40:14.901Z,24.8
2018-05-25T10:41:24.112Z,24.77
2018-05-25T10:42:33.529Z,24.77
2018-05-25T10:43:42.716Z,24.83
2018-05-25T10:44:52.165Z,24.87
2018-05-25T10:46:01.585Z,24.88
2018-05-25T10:47:10.497Z,24.8
2018-05-25T10:48:19.426Z,24.78
2018-05-25T10:49:28.389Z,24.81
2018-05-25T10:50:37.589Z,24.78
2018-05-25T10:51:47.320Z,24.78
2018-05-25T10:52:56.241Z,24.8
2018-05-25T10:54:05.666Z,24.81
2018-05-25T10:55:15.131Z,24.84
2018-05-25T10:56:24.547Z,24.78
2018-05-25T10:57:33.773Z,24.93
2018-05-25T10:58:43.249Z,24.8
2018-05-25T10:59:52.984Z,24.78
2018-05-25T11:01:02.464Z,24.83
2018-05-25T11:02:11.889Z,24.81
2018-05-25T11:03:21.321Z,24.88
2018-05-25T11:04:30.488Z,24.78
2018-05-25T11:05:39.701Z,24.81
2018-05-25T11:06:49.148Z,24.8
2018-05-25T11:07:58.583Z,24.81
2018-05-25T11:09:07.770Z,24.77
2018-05-25T11:10:17.196Z,24.81
2018-05-25T11:11:26.619Z,24.78
2018-05-25T11:12:35.552Z,24.81
2018-05-25T11:13:44.706Z,24.83
2018-05-25T11:14:54.130Z,24.8
2018-05-25T11:16:03.274Z,24.8
2018-05-25T11:17:12.702Z,24.81
2018-05-25T11:18:21.854Z,24.88
2018-05-25T11:19:30.756Z,24.84
2018-05-25T11:20:40.480Z,24.83
2018-05-25T11:21:49.965Z,24.83
2018-05-25T11:22:59.674Z,24.83
2018-05-25T11:24:09.127Z,24.78
2018-05-25T11:25:18.273Z,24.88
2018-05-25T11:26:27.711Z,24.83
2018-05-25T11:27:36.615Z,24.91
2018-05-25T11:28:46.093Z,24.83
2018-05-25T11:29:55.521Z,24.81
2018-05-25T11:31:05.238Z,24.77
2018-05-25T11:32:14.947Z,24.78
2018-05-25T11:33:24.885Z,24.81
2018-05-25T11:34:34.313Z,24.81
2018-05-25T11:35:43.731Z,24.83
2018-05-25T11:36:52.659Z,24.81
2018-05-25T11:38:01.619Z,24.78
2018-05-25T11:39:11.049Z,24.84
2018-05-25T11:40:21.192Z,24.78
2018-05-25T11:41:30.905Z,24.78
2018-05-25T11:42:40.096Z,24.83
2018-05-25T11:43:49.804Z,24.91
2018-05-25T11:44:58.985Z,24.84
2018-05-25T11:46:08.917Z,24.83
2018-05-25T11:47:18.339Z,24.8
2018-05-25T11:48:28.289Z,24.85
2018-05-25T11:49:37.727Z,24.83
2018-05-25T11:50:46.912Z,24.84
2018-05-25T11:51:56.358Z,24.88
2018-05-25T11:53:05.744Z,24.91
2018-05-25T11:54:14.862Z,24.78
2018-05-25T11:55:24.310Z,24.78
2018-05-25T11:56:34.025Z,24.85
2018-05-25T11:57:43.195Z,24.88
2018-05-25T11:58:52.881Z,24.84
2018-05-25T12:00:02.308Z,24.85
2018-05-25T12:01:12.042Z,24.9
2018-05-25T12:02:20.964Z,24.81
2018-05-25T12:03:30.135Z,24.88
2018-05-25T12:04:39.836Z,24.78
2018-05-25T12:05:48.757Z,24.91
2018-05-25T12:06:57.673Z,24.93
2018-05-25T12:08:07.637Z,24.9
2018-05-25T12:09:16.832Z,24.88
2018-05-25T12:10:26.262Z,24.91
2018-05-25T12:11:35.711Z,24.88
2018-05-25T12:12:44.940Z,24.93
2018-05-25T12:13:54.112Z,24.83
2018-05-25T12:15:03.556Z,24.91
2018-05-25T12:16:13.270Z,24.83
2018-05-25T12:17:22.718Z,24.96
2018-05-25T12:18:31.899Z,24.91
2018-05-25T12:19:41.606Z,24.91
2018-05-25T12:20:51.066Z,24.88
2018-05-25T12:22:00.290Z,24.95
2018-05-25T12:23:09.993Z,24.91
2018-05-25T12:24:19.423Z,24.93
2018-05-25T12:25:29.104Z,24.78
2018-05-25T12:26:38.026Z,24.91
2018-05-25T12:27:47.448Z,24.88
2018-05-25T12:28:57.182Z,24.91
2018-05-25T12:30:06.357Z,24.9
2018-05-25T12:31:16.070Z,24.93
2018-05-25T12:32:25.260Z,24.96
2018-05-25T12:33:34.466Z,24.9
2018-05-25T12:34:43.913Z,24.93
2018-05-25T12:35:53.136Z,24.91
2018-05-25T12:37:02.667Z,24.93
2018-05-25T12:38:12.343Z,24.93
2018-05-25T12:39:22.343Z,24.87
2018-05-25T12:40:32.216Z,24.91
2018-05-25T12:41:41.742Z,24.88
2018-05-25T12:42:51.443Z,24.9
2018-05-25T12:44:01.155Z,24.93
2018-05-25T12:45:10.853Z,24.95
2018-05-25T12:46:19.774Z,24.95
2018-05-25T12:47:28.415Z,24.98
2018-05-25T12:48:38.354Z,24.91
2018-05-25T12:49:48.294Z,24.91
2018-05-25T12:50:57.745Z,24.91
2018-05-25T12:52:06.957Z,24.96
2018-05-25T12:53:16.132Z,24.96
2018-05-25T12:54:25.338Z,24.9
2018-05-25T12:55:35.068Z,24.93
2018-05-25T12:56:44.592Z,24.93
2018-05-25T12:57:53.828Z,24.91
2018-05-25T12:59:03.517Z,24.96
2018-05-25T13:00:13.017Z,24.95
2018-05-25T13:01:22.493Z,24.88
2018-05-25T13:02:31.670Z,24.98
2018-05-25T13:03:40.584Z,24.98
2018-05-25T13:04:50.010Z,24.91
2018-05-25T13:05:59.738Z,24.96
2018-05-25T13:07:09.678Z,24.95
2018-05-25T13:08:19.096Z,24.91
2018-05-25T13:09:29.044Z,24.96
2018-05-25T13:10:37.960Z,24.96
2018-05-25T13:11:47.164Z,24.95
2018-05-25T13:12:56.611Z,24.9
2018-05-25T13:14:06.048Z,24.96
2018-05-25T13:15:15.757Z,24.95
2018-05-25T13:16:25.446Z,24.91
2018-05-25T13:17:35.121Z,25.03
2018-05-25T13:18:44.541Z,25
2018-05-25T13:19:53.733Z,24.9
2018-05-25T13:21:02.900Z,24.99
2018-05-25T13:22:12.327Z,24.9
2018-05-25T13:23:21.754Z,24.93
2018-05-25T13:24:31.698Z,24.91
2018-05-25T13:25:40.613Z,24.95
2018-05-25T13:26:49.777Z,24.96
2018-05-25T13:27:59.468Z,24.99
2018-05-25T13:29:08.371Z,25.02
2018-05-25T13:30:17.782Z,24.99
2018-05-25T13:31:27.209Z,25.03
2018-05-25T13:32:36.875Z,25.03
2018-05-25T13:33:46.285Z,24.95
2018-05-25T13:34:55.467Z,24.96
2018-05-25T13:36:05.409Z,25.02
2018-05-25T13:37:14.581Z,25.08
2018-05-25T13:38:23.522Z,25.06
2018-05-25T13:39:33.483Z,25.05
2018-05-25T13:40:42.888Z,25.05
2018-05-25T13:41:52.299Z,25.02
2018-05-25T13:43:01.724Z,25.03
2018-05-25T13:44:11.407Z,25.05
2018-05-25T13:45:20.840Z,25
2018-05-25T13:46:30.510Z,25.09
2018-05-25T13:47:39.687Z,25.05
2018-05-25T13:48:48.581Z,25.13
2018-05-25T13:49:57.472Z,25.13
2018-05-25T13:51:06.893Z,25.1
2018-05-25T13:52:16.297Z,25.08
2018-05-25T13:53:25.981Z,25.09
2018-05-25T13:54:35.662Z,25.06
2018-05-25T13:55:45.344Z,25.05
2018-05-25T13:56:54.771Z,25.1
2018-05-25T13:58:04.432Z,25.17
2018-05-25T13:59:14.118Z,25.09
2018-05-25T14:00:23.540Z,25.09
2018-05-25T14:01:32.693Z,25.17
2018-05-25T14:02:42.115Z,25.17
2018-05-25T14:03:51.803Z,25.15
2018-05-25T14:05:01.247Z,25.17
2018-05-25T14:06:10.407Z,25.18
2018-05-25T14:07:19.575Z,25.1
2018-05-25T14:08:28.732Z,25.2
2018-05-25T14:09:38.445Z,25.14
2018-05-25T14:10:47.856Z,25.14
2018-05-25T14:11:57.578Z,25.13
2018-05-25T14:13:06.746Z,25.14
2018-05-25T14:14:16.702Z,25.17
2018-05-25T14:15:25.897Z,25.2
2018-05-25T14:16:35.066Z,25.15
2018-05-25T14:17:44.764Z,25.08
2018-05-25T14:18:54.698Z,25.13
2018-05-25T14:20:04.640Z,25.09
2018-05-25T14:21:14.351Z,25.09
2018-05-25T14:22:23.793Z,25.08
2018-05-25T14:23:33.223Z,25.08
2018-05-25T14:24:42.969Z,25.09
2018-05-25T14:25:52.413Z,25.05
2018-05-25T14:27:02.359Z,25.09
2018-05-25T14:28:12.069Z,25.06
2018-05-25T14:29:21.783Z,25.08
2018-05-25T14:30:31.203Z,25.09
2018-05-25T14:31:40.736Z,25.09
2018-05-25T14:32:50.426Z,25.09
2018-05-25T14:33:59.329Z,25.13
2018-05-25T14:35:09.735Z,25.08
2018-05-25T14:36:18.909Z,25.05
2018-05-25T14:37:28.130Z,25.06
2018-05-25T14:38:37.319Z,25.08
2018-05-25T14:39:46.244Z,25.09
2018-05-25T14:40:55.458Z,25.09
2018-05-25T14:42:04.629Z,25.1
2018-05-25T14:43:14.070Z,25.1
2018-05-25T14:44:23.520Z,25.05
2018-05-25T14:45:33.205Z,25.09
2018-05-25T14:46:42.658Z,25.13
2018-05-25T14:47:52.357Z,25.1
2018-05-25T14:49:01.537Z,25.06
2018-05-25T14:50:11.250Z,25.1
2018-05-25T14:51:20.433Z,25.14
2018-05-25T14:52:29.360Z,25.06
2018-05-25T14:53:38.855Z,25.06
2018-05-25T14:54:48.523Z,25.08
2018-05-25T14:55:57.951Z,25.06
2018-05-25T14:57:07.634Z,25.05
2018-05-25T14:58:17.060Z,25.08